sensor_id;sensor_type;location;lat;lon;timestamp;temperature;humidity
10873;DHT22;34586;53.616;10.032;2024-01-15T00:01:45;2.30;99.90
10873;DHT22;34586;53.616;10.032;2024-01-15T00:04:10;2.20;99.90
10873;DHT22;34586;53.616;10.032;2024-01-15T00:06:36;2.20;99.90
10873;DHT22;34586;53.616;10.032;2024-01-15T00:09:02;2.20;99.90
10873;DHT22;34586;53.616;10.032;2024-01-15T00:11:27;2.30;99.90
10873;DHT22;34586;53.616;10.032;2024-01-15T00:13:53;2.30;99.90
10873;DHT22;34586;53.616;10.032;2024-01-15T00:16:19;2.30;99.90
10873;DHT22;34586;53.616;10.032;2024-01-15T00:18:44;2.30;99.90
10873;DHT22;34586;53.616;10.032;2024-01-15T00:21:10;2.30;99.90
10873;DHT22;34586;53.616;10.032;2024-01-15T00:23:36;2.30;99.90
10873;DHT22;34586;53.616;10.032;2024-01-15T00:26:01;2.30;99.90
10873;DHT22;34586;53.616;10.032;2024-01-15T00:28:27;2.20;99.90
10873;DHT22;34586;53.616;10.032;2024-01-15T00:30:52;2.10;99.90
10873;DHT22;34586;53.616;10.032;2024-01-15T00:33:18;2.20;99.90
10873;DHT22;34586;53.616;10.032;2024-01-15T00:35:43;2.20;99.90
10873;DHT22;34586;53.616;10.032;2024-01-15T00:38:09;2.20;99.90
10873;DHT22;34586;53.616;10.032;2024-01-15T00:40:34;2.20;99.90
10873;DHT22;34586;53.616;10.032;2024-01-15T00:43:00;2.20;99.90
10873;DHT22;34586;53.616;10.032;2024-01-15T00:45:27;2.20;99.90
10873;DHT22;34586;53.616;10.032;2024-01-15T00:47:53;2.10;99.90
10873;DHT22;34586;53.616;10.032;2024-01-15T00:50:18;2.10;99.90
10873;DHT22;34586;53.616;10.032;2024-01-15T00:52:44;2.20;99.90
10873;DHT22;34586;53.616;10.032;2024-01-15T00:55:09;2.20;99.90
10873;DHT22;34586;53.616;10.032;2024-01-15T00:57:35;2.20;99.90
10873;DHT22;34586;53.616;10.032;2024-01-15T01:00:01;2.20;99.90
10873;DHT22;34586;53.616;10.032;2024-01-15T01:02:27;2.20;99.90
10873;DHT22;34586;53.616;10.032;2024-01-15T01:04:52;2.20;99.90
10873;DHT22;34586;53.616;10.032;2024-01-15T01:07:18;2.20;99.90
10873;DHT22;34586;53.616;10.032;2024-01-15T01:09:44;2.10;99.90
10873;DHT22;34586;53.616;10.032;2024-01-15T01:12:11;2.10;99.90
10873;DHT22;34586;53.616;10.032;2024-01-15T01:14:37;2.10;99.90
10873;DHT22;34586;53.616;10.032;2024-01-15T01:17:03;2.10;99.90
10873;DHT22;34586;53.616;10.032;2024-01-15T01:19:28;2.10;99.90
10873;DHT22;34586;53.616;10.032;2024-01-15T01:21:54;2.20;99.90
10873;DHT22;34586;53.616;10.032;2024-01-15T01:24:19;2.10;99.90
10873;DHT22;34586;53.616;10.032;2024-01-15T01:26:45;2.20;99.90
10873;DHT22;34586;53.616;10.032;2024-01-15T01:29:12;2.20;99.90
10873;DHT22;34586;53.616;10.032;2024-01-15T01:31:45;2.30;99.90
10873;DHT22;34586;53.616;10.032;2024-01-15T01:34:13;2.40;99.90
10873;DHT22;34586;53.616;10.032;2024-01-15T01:36:39;2.40;99.90
10873;DHT22;34586;53.616;10.032;2024-01-15T01:39:04;2.40;99.90
10873;DHT22;34586;53.616;10.032;2024-01-15T01:41:30;2.40;99.90
10873;DHT22;34586;53.616;10.032;2024-01-15T01:43:56;2.40;99.90
10873;DHT22;34586;53.616;10.032;2024-01-15T01:46:23;2.40;99.90
10873;DHT22;34586;53.616;10.032;2024-01-15T01:48:48;2.40;99.90
10873;DHT22;34586;53.616;10.032;2024-01-15T01:51:14;2.40;99.90
10873;DHT22;34586;53.616;10.032;2024-01-15T01:53:41;2.40;99.90
10873;DHT22;34586;53.616;10.032;2024-01-15T01:56:07;2.40;99.90
10873;DHT22;34586;53.616;10.032;2024-01-15T01:58:33;2.50;99.90
10873;DHT22;34586;53.616;10.032;2024-01-15T02:00:59;2.50;99.90
10873;DHT22;34586;53.616;10.032;2024-01-15T02:03:27;2.50;99.90
10873;DHT22;34586;53.616;10.032;2024-01-15T02:05:52;2.50;99.90
10873;DHT22;34586;53.616;10.032;2024-01-15T02:08:18;2.60;99.90
10873;DHT22;34586;53.616;10.032;2024-01-15T02:10:44;2.60;99.90
10873;DHT22;34586;53.616;10.032;2024-01-15T02:13:10;2.60;99.90
10873;DHT22;34586;53.616;10.032;2024-01-15T02:15:36;2.60;99.90
10873;DHT22;34586;53.616;10.032;2024-01-15T02:18:06;2.60;99.90
10873;DHT22;34586;53.616;10.032;2024-01-15T02:20:33;2.50;99.90
10873;DHT22;34586;53.616;10.032;2024-01-15T02:23:17;2.50;99.90
10873;DHT22;34586;53.616;10.032;2024-01-15T02:25:44;2.40;99.90
10873;DHT22;34586;53.616;10.032;2024-01-15T02:28:12;2.40;99.90
10873;DHT22;34586;53.616;10.032;2024-01-15T02:30:39;2.40;99.90
10873;DHT22;34586;53.616;10.032;2024-01-15T02:33:06;2.30;99.90
10873;DHT22;34586;53.616;10.032;2024-01-15T02:35:32;2.30;99.90
10873;DHT22;34586;53.616;10.032;2024-01-15T02:37:58;2.30;99.90
10873;DHT22;34586;53.616;10.032;2024-01-15T02:40:24;2.30;99.90
10873;DHT22;34586;53.616;10.032;2024-01-15T02:42:49;2.40;99.90
10873;DHT22;34586;53.616;10.032;2024-01-15T02:45:15;2.40;99.90
10873;DHT22;34586;53.616;10.032;2024-01-15T02:47:41;2.40;99.90
10873;DHT22;34586;53.616;10.032;2024-01-15T02:50:07;2.40;99.90
10873;DHT22;34586;53.616;10.032;2024-01-15T02:52:32;2.40;99.90
10873;DHT22;34586;53.616;10.032;2024-01-15T02:54:58;2.40;99.90
10873;DHT22;34586;53.616;10.032;2024-01-15T02:57:23;2.50;99.90
10873;DHT22;34586;53.616;10.032;2024-01-15T02:59:49;2.50;99.90
10873;DHT22;34586;53.616;10.032;2024-01-15T03:02:14;2.50;99.90
10873;DHT22;34586;53.616;10.032;2024-01-15T03:04:46;2.50;99.90
10873;DHT22;34586;53.616;10.032;2024-01-15T03:07:12;2.40;99.90
10873;DHT22;34586;53.616;10.032;2024-01-15T03:09:38;2.40;99.90
10873;DHT22;34586;53.616;10.032;2024-01-15T03:12:04;2.40;99.90
10873;DHT22;34586;53.616;10.032;2024-01-15T03:14:30;2.50;99.90
10873;DHT22;34586;53.616;10.032;2024-01-15T03:16:55;2.50;99.90
10873;DHT22;34586;53.616;10.032;2024-01-15T03:19:21;2.50;99.90
10873;DHT22;34586;53.616;10.032;2024-01-15T03:21:46;2.50;99.90
10873;DHT22;34586;53.616;10.032;2024-01-15T03:24:12;2.40;99.90
10873;DHT22;34586;53.616;10.032;2024-01-15T03:26:38;2.40;99.90
10873;DHT22;34586;53.616;10.032;2024-01-15T03:29:03;2.40;99.90
10873;DHT22;34586;53.616;10.032;2024-01-15T03:31:29;2.40;99.90
10873;DHT22;34586;53.616;10.032;2024-01-15T03:33:55;2.40;99.90
10873;DHT22;34586;53.616;10.032;2024-01-15T03:36:20;2.40;99.90
10873;DHT22;34586;53.616;10.032;2024-01-15T03:38:46;2.30;99.90
10873;DHT22;34586;53.616;10.032;2024-01-15T03:41:12;2.30;99.90
10873;DHT22;34586;53.616;10.032;2024-01-15T03:43:38;2.30;99.90
10873;DHT22;34586;53.616;10.032;2024-01-15T03:46:03;2.30;99.90
10873;DHT22;34586;53.616;10.032;2024-01-15T03:48:30;2.30;99.90
10873;DHT22;34586;53.616;10.032;2024-01-15T03:50:55;2.30;99.90
10873;DHT22;34586;53.616;10.032;2024-01-15T03:53:21;2.30;99.90
10873;DHT22;34586;53.616;10.032;2024-01-15T03:55:47;2.30;99.90
10873;DHT22;34586;53.616;10.032;2024-01-15T03:58:12;2.30;99.90
10873;DHT22;34586;53.616;10.032;2024-01-15T04:00:40;2.40;99.90
10873;DHT22;34586;53.616;10.032;2024-01-15T04:03:06;2.40;99.90
10873;DHT22;34586;53.616;10.032;2024-01-15T04:05:31;2.40;99.90
10873;DHT22;34586;53.616;10.032;2024-01-15T04:07:57;2.40;99.90
10873;DHT22;34586;53.616;10.032;2024-01-15T04:10:23;2.40;99.90
10873;DHT22;34586;53.616;10.032;2024-01-15T04:12:48;2.40;99.90
10873;DHT22;34586;53.616;10.032;2024-01-15T04:15:14;2.50;99.90
10873;DHT22;34586;53.616;10.032;2024-01-15T04:17:39;2.50;99.90
10873;DHT22;34586;53.616;10.032;2024-01-15T04:20:05;2.50;99.90
10873;DHT22;34586;53.616;10.032;2024-01-15T04:22:31;2.50;99.90
10873;DHT22;34586;53.616;10.032;2024-01-15T04:24:57;2.50;99.90
10873;DHT22;34586;53.616;10.032;2024-01-15T04:27:23;2.50;99.90
10873;DHT22;34586;53.616;10.032;2024-01-15T04:29:48;2.50;99.90
10873;DHT22;34586;53.616;10.032;2024-01-15T04:32:14;2.50;99.90
10873;DHT22;34586;53.616;10.032;2024-01-15T04:34:39;2.50;99.90
10873;DHT22;34586;53.616;10.032;2024-01-15T04:37:05;2.50;99.90
10873;DHT22;34586;53.616;10.032;2024-01-15T04:39:30;2.50;99.90
10873;DHT22;34586;53.616;10.032;2024-01-15T04:41:56;2.50;99.90
10873;DHT22;34586;53.616;10.032;2024-01-15T04:44:22;2.40;99.90
10873;DHT22;34586;53.616;10.032;2024-01-15T04:46:47;2.50;99.90
10873;DHT22;34586;53.616;10.032;2024-01-15T04:49:13;2.50;99.90
10873;DHT22;34586;53.616;10.032;2024-01-15T04:51:39;2.50;99.90
10873;DHT22;34586;53.616;10.032;2024-01-15T04:54:04;2.50;99.90
10873;DHT22;34586;53.616;10.032;2024-01-15T04:56:30;2.50;99.90
10873;DHT22;34586;53.616;10.032;2024-01-15T04:58:55;2.60;99.90
10873;DHT22;34586;53.616;10.032;2024-01-15T05:01:21;2.60;99.90
10873;DHT22;34586;53.616;10.032;2024-01-15T05:03:47;2.60;99.90
10873;DHT22;34586;53.616;10.032;2024-01-15T05:06:12;2.60;99.90
10873;DHT22;34586;53.616;10.032;2024-01-15T05:08:38;2.70;99.90
10873;DHT22;34586;53.616;10.032;2024-01-15T05:11:03;2.70;99.90
10873;DHT22;34586;53.616;10.032;2024-01-15T05:13:29;2.80;99.90
10873;DHT22;34586;53.616;10.032;2024-01-15T05:15:54;2.70;99.90
10873;DHT22;34586;53.616;10.032;2024-01-15T05:18:20;2.70;99.90
10873;DHT22;34586;53.616;10.032;2024-01-15T05:20:46;2.70;99.90
10873;DHT22;34586;53.616;10.032;2024-01-15T05:23:11;2.70;99.90
10873;DHT22;34586;53.616;10.032;2024-01-15T05:25:37;2.70;99.90
10873;DHT22;34586;53.616;10.032;2024-01-15T05:28:02;2.70;99.90
10873;DHT22;34586;53.616;10.032;2024-01-15T05:30:28;2.70;99.90
10873;DHT22;34586;53.616;10.032;2024-01-15T05:32:54;2.70;99.90
10873;DHT22;34586;53.616;10.032;2024-01-15T05:35:19;2.60;99.90
10873;DHT22;34586;53.616;10.032;2024-01-15T05:37:45;2.70;99.90
10873;DHT22;34586;53.616;10.032;2024-01-15T05:40:12;2.80;99.90
10873;DHT22;34586;53.616;10.032;2024-01-15T05:42:38;2.80;99.90
10873;DHT22;34586;53.616;10.032;2024-01-15T05:45:05;2.80;99.90
10873;DHT22;34586;53.616;10.032;2024-01-15T05:47:31;2.80;99.90
10873;DHT22;34586;53.616;10.032;2024-01-15T05:49:57;2.80;99.90
10873;DHT22;34586;53.616;10.032;2024-01-15T05:52:23;2.80;99.90
10873;DHT22;34586;53.616;10.032;2024-01-15T05:54:49;2.80;99.90
10873;DHT22;34586;53.616;10.032;2024-01-15T05:57:15;2.80;99.90
10873;DHT22;34586;53.616;10.032;2024-01-15T05:59:41;2.80;99.90
10873;DHT22;34586;53.616;10.032;2024-01-15T06:02:06;2.80;99.90
10873;DHT22;34586;53.616;10.032;2024-01-15T06:04:32;2.80;99.90
10873;DHT22;34586;53.616;10.032;2024-01-15T06:06:58;2.80;99.90
10873;DHT22;34586;53.616;10.032;2024-01-15T06:09:23;2.80;99.90
10873;DHT22;34586;53.616;10.032;2024-01-15T06:11:49;2.80;99.90
10873;DHT22;34586;53.616;10.032;2024-01-15T06:14:14;2.80;99.90
10873;DHT22;34586;53.616;10.032;2024-01-15T06:16:40;2.80;99.90
10873;DHT22;34586;53.616;10.032;2024-01-15T06:19:06;2.80;99.90
10873;DHT22;34586;53.616;10.032;2024-01-15T06:21:31;2.80;99.90
10873;DHT22;34586;53.616;10.032;2024-01-15T06:23:57;2.90;99.90
10873;DHT22;34586;53.616;10.032;2024-01-15T06:26:23;2.80;99.90
10873;DHT22;34586;53.616;10.032;2024-01-15T06:28:49;2.80;99.90
10873;DHT22;34586;53.616;10.032;2024-01-15T06:31:14;2.80;99.90
10873;DHT22;34586;53.616;10.032;2024-01-15T06:33:40;2.80;99.90
10873;DHT22;34586;53.616;10.032;2024-01-15T06:36:06;2.80;99.90
10873;DHT22;34586;53.616;10.032;2024-01-15T06:38:32;2.80;99.90
10873;DHT22;34586;53.616;10.032;2024-01-15T06:40:57;2.80;99.90
10873;DHT22;34586;53.616;10.032;2024-01-15T06:43:23;2.80;99.90
10873;DHT22;34586;53.616;10.032;2024-01-15T06:45:49;2.80;99.90
10873;DHT22;34586;53.616;10.032;2024-01-15T06:48:15;2.80;99.90
10873;DHT22;34586;53.616;10.032;2024-01-15T06:50:42;2.90;99.90
10873;DHT22;34586;53.616;10.032;2024-01-15T06:53:08;2.90;99.90
10873;DHT22;34586;53.616;10.032;2024-01-15T06:55:33;2.90;99.90
10873;DHT22;34586;53.616;10.032;2024-01-15T06:57:59;2.90;99.90
10873;DHT22;34586;53.616;10.032;2024-01-15T07:00:25;3.00;99.90
10873;DHT22;34586;53.616;10.032;2024-01-15T07:02:51;3.00;99.90
10873;DHT22;34586;53.616;10.032;2024-01-15T07:05:17;3.00;99.90
10873;DHT22;34586;53.616;10.032;2024-01-15T07:07:43;3.00;99.90
10873;DHT22;34586;53.616;10.032;2024-01-15T07:10:08;3.00;99.90
10873;DHT22;34586;53.616;10.032;2024-01-15T07:12:34;3.00;99.90
10873;DHT22;34586;53.616;10.032;2024-01-15T07:15:00;3.00;99.90
10873;DHT22;34586;53.616;10.032;2024-01-15T07:17:28;3.00;99.90
10873;DHT22;34586;53.616;10.032;2024-01-15T07:19:53;3.00;99.90
10873;DHT22;34586;53.616;10.032;2024-01-15T07:22:19;3.00;99.90
10873;DHT22;34586;53.616;10.032;2024-01-15T07:24:45;3.00;99.90
10873;DHT22;34586;53.616;10.032;2024-01-15T07:27:11;3.00;99.90
10873;DHT22;34586;53.616;10.032;2024-01-15T07:29:37;2.90;99.90
10873;DHT22;34586;53.616;10.032;2024-01-15T07:32:03;2.90;99.90
10873;DHT22;34586;53.616;10.032;2024-01-15T07:34:29;2.90;99.90
10873;DHT22;34586;53.616;10.032;2024-01-15T07:36:55;2.90;99.90
10873;DHT22;34586;53.616;10.032;2024-01-15T07:39:20;3.00;99.90
10873;DHT22;34586;53.616;10.032;2024-01-15T07:41:48;3.00;99.90
10873;DHT22;34586;53.616;10.032;2024-01-15T07:44:13;3.00;99.90
10873;DHT22;34586;53.616;10.032;2024-01-15T07:46:39;3.00;99.90
10873;DHT22;34586;53.616;10.032;2024-01-15T07:49:05;3.00;99.90
10873;DHT22;34586;53.616;10.032;2024-01-15T07:51:30;2.90;99.90
10873;DHT22;34586;53.616;10.032;2024-01-15T07:53:56;2.90;99.90
10873;DHT22;34586;53.616;10.032;2024-01-15T07:56:22;2.90;99.90
10873;DHT22;34586;53.616;10.032;2024-01-15T07:58:47;2.90;99.90
10873;DHT22;34586;53.616;10.032;2024-01-15T08:01:13;2.90;99.90
10873;DHT22;34586;53.616;10.032;2024-01-15T08:03:38;3.00;99.90
10873;DHT22;34586;53.616;10.032;2024-01-15T08:06:05;3.00;99.90
10873;DHT22;34586;53.616;10.032;2024-01-15T08:08:31;3.00;99.90
10873;DHT22;34586;53.616;10.032;2024-01-15T08:10:57;3.00;99.90
10873;DHT22;34586;53.616;10.032;2024-01-15T08:13:22;3.00;99.90
10873;DHT22;34586;53.616;10.032;2024-01-15T08:15:48;3.10;99.90
10873;DHT22;34586;53.616;10.032;2024-01-15T08:18:14;3.10;99.90
10873;DHT22;34586;53.616;10.032;2024-01-15T08:20:39;3.10;99.90
10873;DHT22;34586;53.616;10.032;2024-01-15T08:23:05;3.10;99.90
10873;DHT22;34586;53.616;10.032;2024-01-15T08:25:31;3.10;99.90
10873;DHT22;34586;53.616;10.032;2024-01-15T08:27:57;3.10;99.90
10873;DHT22;34586;53.616;10.032;2024-01-15T08:30:25;3.20;99.90
10873;DHT22;34586;53.616;10.032;2024-01-15T08:32:55;3.20;99.90
10873;DHT22;34586;53.616;10.032;2024-01-15T08:35:21;3.20;99.90
10873;DHT22;34586;53.616;10.032;2024-01-15T08:37:49;3.20;99.90
10873;DHT22;34586;53.616;10.032;2024-01-15T08:40:15;3.20;99.90
10873;DHT22;34586;53.616;10.032;2024-01-15T08:42:41;3.20;99.90
10873;DHT22;34586;53.616;10.032;2024-01-15T08:45:07;3.20;99.90
10873;DHT22;34586;53.616;10.032;2024-01-15T08:47:32;3.30;99.90
10873;DHT22;34586;53.616;10.032;2024-01-15T08:49:58;3.30;99.90
10873;DHT22;34586;53.616;10.032;2024-01-15T08:52:24;3.30;99.90
10873;DHT22;34586;53.616;10.032;2024-01-15T08:54:50;3.30;99.90
10873;DHT22;34586;53.616;10.032;2024-01-15T08:57:15;3.30;99.90
10873;DHT22;34586;53.616;10.032;2024-01-15T08:59:41;3.30;99.90
10873;DHT22;34586;53.616;10.032;2024-01-15T09:02:07;3.30;99.90
10873;DHT22;34586;53.616;10.032;2024-01-15T09:04:33;3.20;99.90
10873;DHT22;34586;53.616;10.032;2024-01-15T09:06:59;3.20;99.90
10873;DHT22;34586;53.616;10.032;2024-01-15T09:09:24;3.20;99.90
10873;DHT22;34586;53.616;10.032;2024-01-15T09:11:51;3.10;99.90
10873;DHT22;34586;53.616;10.032;2024-01-15T09:14:16;3.00;99.90
10873;DHT22;34586;53.616;10.032;2024-01-15T09:16:42;3.00;99.90
10873;DHT22;34586;53.616;10.032;2024-01-15T09:19:08;2.90;99.90
10873;DHT22;34586;53.616;10.032;2024-01-15T09:21:33;2.90;99.90
10873;DHT22;34586;53.616;10.032;2024-01-15T09:23:59;2.90;99.90
10873;DHT22;34586;53.616;10.032;2024-01-15T09:26:26;2.90;99.90
10873;DHT22;34586;53.616;10.032;2024-01-15T09:28:52;2.80;99.90
10873;DHT22;34586;53.616;10.032;2024-01-15T09:31:18;2.80;99.90
10873;DHT22;34586;53.616;10.032;2024-01-15T09:33:45;2.70;99.90
10873;DHT22;34586;53.616;10.032;2024-01-15T09:36:10;2.70;99.90
10873;DHT22;34586;53.616;10.032;2024-01-15T09:38:36;2.70;99.90
10873;DHT22;34586;53.616;10.032;2024-01-15T09:41:02;2.60;99.90
10873;DHT22;34586;53.616;10.032;2024-01-15T09:43:27;2.60;99.90
10873;DHT22;34586;53.616;10.032;2024-01-15T09:45:54;2.50;99.90
10873;DHT22;34586;53.616;10.032;2024-01-15T09:48:20;2.50;99.90
10873;DHT22;34586;53.616;10.032;2024-01-15T09:50:46;2.50;99.90
10873;DHT22;34586;53.616;10.032;2024-01-15T09:53:12;2.50;99.90
10873;DHT22;34586;53.616;10.032;2024-01-15T09:55:41;2.50;99.90
10873;DHT22;34586;53.616;10.032;2024-01-15T09:58:07;2.60;99.90
10873;DHT22;34586;53.616;10.032;2024-01-15T10:00:33;2.60;99.90
10873;DHT22;34586;53.616;10.032;2024-01-15T10:03:05;2.50;99.90
10873;DHT22;34586;53.616;10.032;2024-01-15T10:05:32;2.40;99.90
10873;DHT22;34586;53.616;10.032;2024-01-15T10:07:58;2.40;99.90
10873;DHT22;34586;53.616;10.032;2024-01-15T10:10:25;2.40;99.90
10873;DHT22;34586;53.616;10.032;2024-01-15T10:12:51;2.40;99.90
10873;DHT22;34586;53.616;10.032;2024-01-15T10:15:16;2.40;99.90
10873;DHT22;34586;53.616;10.032;2024-01-15T10:17:43;2.40;99.90
10873;DHT22;34586;53.616;10.032;2024-01-15T10:20:10;2.50;99.90
10873;DHT22;34586;53.616;10.032;2024-01-15T10:22:40;2.50;99.90
10873;DHT22;34586;53.616;10.032;2024-01-15T10:25:06;2.50;99.90
10873;DHT22;34586;53.616;10.032;2024-01-15T10:27:35;2.60;99.90
10873;DHT22;34586;53.616;10.032;2024-01-15T10:30:01;2.60;99.90
10873;DHT22;34586;53.616;10.032;2024-01-15T10:32:28;2.70;99.90
10873;DHT22;34586;53.616;10.032;2024-01-15T10:34:54;2.80;99.90
10873;DHT22;34586;53.616;10.032;2024-01-15T10:37:20;2.80;99.90
10873;DHT22;34586;53.616;10.032;2024-01-15T10:39:48;2.80;99.90
10873;DHT22;34586;53.616;10.032;2024-01-15T10:42:14;2.80;99.90
10873;DHT22;34586;53.616;10.032;2024-01-15T10:44:41;2.90;99.90
10873;DHT22;34586;53.616;10.032;2024-01-15T10:47:09;2.90;99.90
10873;DHT22;34586;53.616;10.032;2024-01-15T10:49:34;2.80;99.90
10873;DHT22;34586;53.616;10.032;2024-01-15T10:52:01;2.80;99.90
10873;DHT22;34586;53.616;10.032;2024-01-15T10:54:27;2.90;99.90
10873;DHT22;34586;53.616;10.032;2024-01-15T10:56:54;2.90;99.90
10873;DHT22;34586;53.616;10.032;2024-01-15T10:59:21;2.90;99.90
10873;DHT22;34586;53.616;10.032;2024-01-15T11:01:48;2.90;99.90
10873;DHT22;34586;53.616;10.032;2024-01-15T11:04:15;2.90;99.90
10873;DHT22;34586;53.616;10.032;2024-01-15T11:06:47;2.90;99.90
10873;DHT22;34586;53.616;10.032;2024-01-15T11:09:13;2.90;99.90
10873;DHT22;34586;53.616;10.032;2024-01-15T11:11:41;2.90;99.90
10873;DHT22;34586;53.616;10.032;2024-01-15T11:14:07;2.90;99.90
10873;DHT22;34586;53.616;10.032;2024-01-15T11:16:53;3.00;99.90
10873;DHT22;34586;53.616;10.032;2024-01-15T11:19:19;3.00;99.90
10873;DHT22;34586;53.616;10.032;2024-01-15T11:21:45;3.10;99.90
10873;DHT22;34586;53.616;10.032;2024-01-15T11:24:10;3.10;99.90
10873;DHT22;34586;53.616;10.032;2024-01-15T11:26:56;3.10;99.90
10873;DHT22;34586;53.616;10.032;2024-01-15T11:29:36;3.10;99.90
10873;DHT22;34586;53.616;10.032;2024-01-15T11:35:01;3.00;99.90
10873;DHT22;34586;53.616;10.032;2024-01-15T11:40:12;3.00;99.90
10873;DHT22;34586;53.616;10.032;2024-01-15T11:42:39;2.90;99.90
10873;DHT22;34586;53.616;10.032;2024-01-15T11:45:05;3.00;99.90
10873;DHT22;34586;53.616;10.032;2024-01-15T11:50:27;3.10;99.90
10873;DHT22;34586;53.616;10.032;2024-01-15T11:53:03;3.30;99.90
10873;DHT22;34586;53.616;10.032;2024-01-15T11:55:39;3.30;99.90
10873;DHT22;34586;53.616;10.032;2024-01-15T11:58:09;3.40;99.90
10873;DHT22;34586;53.616;10.032;2024-01-15T12:00:42;3.40;99.90
10873;DHT22;34586;53.616;10.032;2024-01-15T12:03:09;3.50;99.90
10873;DHT22;34586;53.616;10.032;2024-01-15T12:05:37;3.50;99.90
10873;DHT22;34586;53.616;10.032;2024-01-15T12:08:03;3.50;99.90
10873;DHT22;34586;53.616;10.032;2024-01-15T12:10:33;3.40;99.90
10873;DHT22;34586;53.616;10.032;2024-01-15T12:13:09;3.50;99.90
10873;DHT22;34586;53.616;10.032;2024-01-15T12:15:35;3.50;99.90
10873;DHT22;34586;53.616;10.032;2024-01-15T12:18:02;3.40;99.90
10873;DHT22;34586;53.616;10.032;2024-01-15T12:20:29;3.40;99.90
10873;DHT22;34586;53.616;10.032;2024-01-15T12:22:55;3.50;99.90
10873;DHT22;34586;53.616;10.032;2024-01-15T12:25:22;3.50;99.90
10873;DHT22;34586;53.616;10.032;2024-01-15T12:27:48;3.50;99.90
10873;DHT22;34586;53.616;10.032;2024-01-15T12:30:14;3.60;99.90
10873;DHT22;34586;53.616;10.032;2024-01-15T12:32:41;3.60;99.90
10873;DHT22;34586;53.616;10.032;2024-01-15T12:35:07;3.60;99.90
10873;DHT22;34586;53.616;10.032;2024-01-15T12:37:41;3.60;99.90
10873;DHT22;34586;53.616;10.032;2024-01-15T12:40:09;3.60;99.90
10873;DHT22;34586;53.616;10.032;2024-01-15T12:42:36;3.60;99.90
10873;DHT22;34586;53.616;10.032;2024-01-15T12:45:03;3.60;99.90
10873;DHT22;34586;53.616;10.032;2024-01-15T12:47:30;3.50;99.90
10873;DHT22;34586;53.616;10.032;2024-01-15T12:49:57;3.50;99.90
10873;DHT22;34586;53.616;10.032;2024-01-15T12:52:23;3.40;99.90
10873;DHT22;34586;53.616;10.032;2024-01-15T12:54:49;3.40;99.90
10873;DHT22;34586;53.616;10.032;2024-01-15T12:57:16;3.40;99.90
10873;DHT22;34586;53.616;10.032;2024-01-15T12:59:41;3.40;99.90
10873;DHT22;34586;53.616;10.032;2024-01-15T13:02:07;3.40;99.90
10873;DHT22;34586;53.616;10.032;2024-01-15T13:04:32;3.40;99.90
10873;DHT22;34586;53.616;10.032;2024-01-15T13:06:58;3.30;99.90
10873;DHT22;34586;53.616;10.032;2024-01-15T13:09:23;3.20;99.90
10873;DHT22;34586;53.616;10.032;2024-01-15T13:11:49;3.20;99.90
10873;DHT22;34586;53.616;10.032;2024-01-15T13:14:15;3.20;99.90
10873;DHT22;34586;53.616;10.032;2024-01-15T13:16:41;3.20;99.90
10873;DHT22;34586;53.616;10.032;2024-01-15T13:19:09;3.20;99.90
10873;DHT22;34586;53.616;10.032;2024-01-15T13:21:42;3.20;99.90
10873;DHT22;34586;53.616;10.032;2024-01-15T13:24:08;3.20;99.90
10873;DHT22;34586;53.616;10.032;2024-01-15T13:26:34;3.20;99.90
10873;DHT22;34586;53.616;10.032;2024-01-15T13:29:01;3.20;99.90
10873;DHT22;34586;53.616;10.032;2024-01-15T13:31:28;3.30;99.90
10873;DHT22;34586;53.616;10.032;2024-01-15T13:33:53;3.20;99.90
10873;DHT22;34586;53.616;10.032;2024-01-15T13:36:21;3.20;99.90
10873;DHT22;34586;53.616;10.032;2024-01-15T13:38:47;3.10;99.90
10873;DHT22;34586;53.616;10.032;2024-01-15T13:41:13;3.10;99.90
10873;DHT22;34586;53.616;10.032;2024-01-15T13:43:40;3.10;99.90
10873;DHT22;34586;53.616;10.032;2024-01-15T13:46:06;3.10;99.90
10873;DHT22;34586;53.616;10.032;2024-01-15T13:48:31;3.10;99.90
10873;DHT22;34586;53.616;10.032;2024-01-15T13:50:58;3.00;99.90
10873;DHT22;34586;53.616;10.032;2024-01-15T13:53:24;3.00;99.90
10873;DHT22;34586;53.616;10.032;2024-01-15T13:55:50;2.90;99.90
10873;DHT22;34586;53.616;10.032;2024-01-15T13:58:16;2.90;99.90
10873;DHT22;34586;53.616;10.032;2024-01-15T14:00:43;2.90;99.90
10873;DHT22;34586;53.616;10.032;2024-01-15T14:03:09;2.90;99.90
10873;DHT22;34586;53.616;10.032;2024-01-15T14:05:35;2.80;99.90
10873;DHT22;34586;53.616;10.032;2024-01-15T14:08:00;2.80;99.90
10873;DHT22;34586;53.616;10.032;2024-01-15T14:10:26;2.80;99.90
10873;DHT22;34586;53.616;10.032;2024-01-15T14:12:51;2.80;99.90
10873;DHT22;34586;53.616;10.032;2024-01-15T14:15:17;2.80;99.90
10873;DHT22;34586;53.616;10.032;2024-01-15T14:17:44;2.80;99.90
10873;DHT22;34586;53.616;10.032;2024-01-15T14:20:10;2.80;99.90
10873;DHT22;34586;53.616;10.032;2024-01-15T14:22:35;2.80;99.90
10873;DHT22;34586;53.616;10.032;2024-01-15T14:25:01;2.70;99.90
10873;DHT22;34586;53.616;10.032;2024-01-15T14:27:27;2.70;99.90
10873;DHT22;34586;53.616;10.032;2024-01-15T14:29:52;2.60;99.90
10873;DHT22;34586;53.616;10.032;2024-01-15T14:32:18;2.60;99.90
10873;DHT22;34586;53.616;10.032;2024-01-15T14:34:43;2.60;99.90
10873;DHT22;34586;53.616;10.032;2024-01-15T14:37:09;2.50;99.90
10873;DHT22;34586;53.616;10.032;2024-01-15T14:39:35;2.50;99.90
10873;DHT22;34586;53.616;10.032;2024-01-15T14:42:00;2.50;99.90
10873;DHT22;34586;53.616;10.032;2024-01-15T14:44:26;2.50;99.90
10873;DHT22;34586;53.616;10.032;2024-01-15T14:46:54;2.40;99.90
10873;DHT22;34586;53.616;10.032;2024-01-15T14:49:20;2.40;99.90
10873;DHT22;34586;53.616;10.032;2024-01-15T14:51:45;2.30;99.90
10873;DHT22;34586;53.616;10.032;2024-01-15T14:54:11;2.30;99.90
10873;DHT22;34586;53.616;10.032;2024-01-15T14:56:37;2.20;99.90
10873;DHT22;34586;53.616;10.032;2024-01-15T14:59:02;2.10;99.90
10873;DHT22;34586;53.616;10.032;2024-01-15T15:01:28;2.10;99.90
10873;DHT22;34586;53.616;10.032;2024-01-15T15:03:54;2.00;99.90
10873;DHT22;34586;53.616;10.032;2024-01-15T15:06:19;2.00;99.90
10873;DHT22;34586;53.616;10.032;2024-01-15T15:08:46;2.00;99.90
10873;DHT22;34586;53.616;10.032;2024-01-15T15:11:12;1.90;99.90
10873;DHT22;34586;53.616;10.032;2024-01-15T15:13:37;1.90;99.90
10873;DHT22;34586;53.616;10.032;2024-01-15T15:16:03;1.80;99.90
10873;DHT22;34586;53.616;10.032;2024-01-15T15:18:29;1.80;99.90
10873;DHT22;34586;53.616;10.032;2024-01-15T15:20:55;1.70;99.90
10873;DHT22;34586;53.616;10.032;2024-01-15T15:23:21;1.70;99.90
10873;DHT22;34586;53.616;10.032;2024-01-15T15:25:47;1.70;99.90
10873;DHT22;34586;53.616;10.032;2024-01-15T15:28:12;1.60;99.90
10873;DHT22;34586;53.616;10.032;2024-01-15T15:30:39;1.30;99.90
10873;DHT22;34586;53.616;10.032;2024-01-15T15:33:05;1.50;99.90